Etusivu
METAR-TAF:

METAR-TAF

Lentoasemat :

Kajaani, Suomi

Kajaanin lentoasema

Leveyspiiri: 64-17N, Pituuspiiri: 027-41E, korkeus merenpinnasta: 143 m

Tämänhetkinen sää

Tämä raportti tehtiin 34 minuuttia sitten, kello 23.50 UTC
Tuuli 8 kn idästä
Lämpötila 0°C
Kosteus 100%
Ilmanpaine 1004 hPa
Näkyvyys 10 km tai enemmän
Pilvistä 400 ft:n korkeudessa

METAR: EFKI 192350Z AUTO 08008KT 9999 OVC004 00/M00 Q1004

Aika: 02:24 (00:24 UTC)

Sääennuste

Tämä raportti tehtiin 6 tuntia ja 1 minuuttia sitten, kello 18.23 UTC
Ennuste voimassa 19. päivästä klo 18 UTC - 19. päivään klo 22 UTC
Tuuli 8 kn idästä
Näkyvyys 10 km tai enemmän
Pilvistä 200 ft:n korkeudessa
Ajoittain
19. päivästä klo 18 UTC - 19. päivään klo 22 UTC
Näkyvyys: 2000 m
Hajonneita pilviä 800 ft:n korkeudessa
utua
Todennäköisyys 30%
19. päivästä klo 18 UTC - 19. päivään klo 22 UTC
(heikkoa) jäätävää, tihkusadetta

TAF: EFKI 191823Z 1918/1922 09008KT 9999 OVC002 TEMPO 1918/1922 2000 BR BKN008 PROB30 1918/1922 -FZDZ

Säähavainnot ja -ennusteet yli 4000 lentoasemalta (METAR- ja TAF-raportit).

Käytössä olevat sääasemat on merkitty karttaan keltaisilla ja punaisilla pisteillä.

Aseta hiiri pisteen päälle nähdäksesi sääaseman nimen.

Klikkaa sitten nähdäksesi säähavainnot ja -ennusteet.

Kartan vaihtaminen: klikkaa mustalla rastilla varustettuja vihreitä pisteitä, niin voit zoomata sisään; viivalla varustettua vihreää pistettä, niin voit zoomata ulos tai vihreitä nuolia, niin pääset viereisille kartoille.


METAR-TAF: